METAR Data
IDs: Format: Raw Decoded Include TAF

Data at: 2143 UTC 02 Aug 2021

LFMT 022130Z AUTO 27008KT CAVOK 22/14 Q1015 NOSIG